sensor_id;sensor_type;location;lat;lon;timestamp;P1;durP1;ratioP1;P2;durP2;ratioP2
75634;SDS011;64227;48.724;9.104;2024-02-16T13:58:04;3.05;;;0.95;;
75634;SDS011;64227;48.724;9.104;2024-02-16T14:00:30;1.58;;;0.75;;
75634;SDS011;64227;48.724;9.104;2024-02-16T14:02:55;2.63;;;1.23;;
75634;SDS011;64227;48.724;9.104;2024-02-16T14:05:21;4.32;;;1.10;;
75634;SDS011;64227;48.724;9.104;2024-02-16T14:07:47;1.88;;;1.10;;
75634;SDS011;64227;48.724;9.104;2024-02-16T14:10:13;2.90;;;1.40;;
75634;SDS011;64227;48.724;9.104;2024-02-16T14:12:39;1.90;;;1.10;;
75634;SDS011;64227;48.724;9.104;2024-02-16T14:15:04;2.55;;;1.10;;
75634;SDS011;64227;48.724;9.104;2024-02-16T14:17:29;3.08;;;1.45;;
75634;SDS011;64227;48.724;9.104;2024-02-16T14:19:55;1.70;;;1.00;;
75634;SDS011;64227;48.724;9.104;2024-02-16T14:22:20;3.10;;;1.15;;
75634;SDS011;64227;48.724;9.104;2024-02-16T14:24:45;2.63;;;1.10;;
75634;SDS011;64227;48.724;9.104;2024-02-16T14:27:11;3.17;;;1.73;;
75634;SDS011;64227;48.724;9.104;2024-02-16T14:29:36;1.90;;;1.40;;
75634;SDS011;64227;48.724;9.104;2024-02-16T14:32:01;7.15;;;3.50;;
75634;SDS011;64227;48.724;9.104;2024-02-16T14:34:27;7.28;;;2.55;;
75634;SDS011;64227;48.724;9.104;2024-02-16T14:36:53;2.92;;;1.50;;
75634;SDS011;64227;48.724;9.104;2024-02-16T14:39:18;2.20;;;1.27;;
75634;SDS011;64227;48.724;9.104;2024-02-16T14:41:44;6.63;;;1.15;;
75634;SDS011;64227;48.724;9.104;2024-02-16T14:44:09;9.85;;;3.60;;
75634;SDS011;64227;48.724;9.104;2024-02-16T14:46:35;3.88;;;1.48;;
75634;SDS011;64227;48.724;9.104;2024-02-16T14:49:00;3.45;;;1.33;;
75634;SDS011;64227;48.724;9.104;2024-02-16T14:51:26;6.95;;;2.53;;
75634;SDS011;64227;48.724;9.104;2024-02-16T14:53:51;5.20;;;1.60;;
75634;SDS011;64227;48.724;9.104;2024-02-16T14:56:16;12.48;;;3.63;;
75634;SDS011;64227;48.724;9.104;2024-02-16T14:58:46;5.55;;;2.83;;
75634;SDS011;64227;48.724;9.104;2024-02-16T15:01:11;4.05;;;1.73;;
75634;SDS011;64227;48.724;9.104;2024-02-16T15:03:37;6.35;;;2.78;;
75634;SDS011;64227;48.724;9.104;2024-02-16T15:06:02;5.80;;;3.20;;
75634;SDS011;64227;48.724;9.104;2024-02-16T15:08:28;10.77;;;4.90;;
75634;SDS011;64227;48.724;9.104;2024-02-16T15:10:53;7.43;;;2.85;;
75634;SDS011;64227;48.724;9.104;2024-02-16T15:13:18;4.20;;;2.50;;
75634;SDS011;64227;48.724;9.104;2024-02-16T15:15:45;9.77;;;5.15;;
75634;SDS011;64227;48.724;9.104;2024-02-16T15:18:10;12.32;;;7.85;;
75634;SDS011;64227;48.724;9.104;2024-02-16T15:20:36;3.78;;;2.60;;
75634;SDS011;64227;48.724;9.104;2024-02-16T15:23:01;5.40;;;2.25;;
75634;SDS011;64227;48.724;9.104;2024-02-16T15:25:27;4.70;;;1.55;;
75634;SDS011;64227;48.724;9.104;2024-02-16T15:27:53;5.22;;;2.80;;
75634;SDS011;64227;48.724;9.104;2024-02-16T15:30:19;10.75;;;5.20;;
75634;SDS011;64227;48.724;9.104;2024-02-16T15:32:45;4.50;;;3.08;;
75634;SDS011;64227;48.724;9.104;2024-02-16T15:35:10;8.23;;;4.97;;
75634;SDS011;64227;48.724;9.104;2024-02-16T15:37:36;5.80;;;2.33;;
75634;SDS011;64227;48.724;9.104;2024-02-16T15:40:01;5.07;;;2.53;;
75634;SDS011;64227;48.724;9.104;2024-02-16T15:42:27;4.25;;;2.35;;
75634;SDS011;64227;48.724;9.104;2024-02-16T15:44:56;4.75;;;2.00;;
75634;SDS011;64227;48.724;9.104;2024-02-16T15:47:22;2.63;;;0.80;;
75634;SDS011;64227;48.724;9.104;2024-02-16T15:49:48;3.47;;;1.35;;
75634;SDS011;64227;48.724;9.104;2024-02-16T15:52:13;7.15;;;3.55;;
75634;SDS011;64227;48.724;9.104;2024-02-16T15:54:38;9.93;;;5.20;;
75634;SDS011;64227;48.724;9.104;2024-02-16T15:57:04;5.97;;;3.10;;
75634;SDS011;64227;48.724;9.104;2024-02-16T15:59:29;8.23;;;4.25;;
75634;SDS011;64227;48.724;9.104;2024-02-16T16:01:55;11.02;;;6.80;;
75634;SDS011;64227;48.724;9.104;2024-02-16T16:04:20;8.80;;;5.13;;
75634;SDS011;64227;48.724;9.104;2024-02-16T16:06:45;11.75;;;6.68;;
75634;SDS011;64227;48.724;9.104;2024-02-16T16:09:11;6.35;;;3.55;;
75634;SDS011;64227;48.724;9.104;2024-02-16T16:11:36;2.28;;;1.55;;
75634;SDS011;64227;48.724;9.104;2024-02-16T16:14:02;5.22;;;2.80;;
75634;SDS011;64227;48.724;9.104;2024-02-16T16:16:27;5.17;;;2.37;;
75634;SDS011;64227;48.724;9.104;2024-02-16T16:18:53;1.77;;;1.50;;
75634;SDS011;64227;48.724;9.104;2024-02-16T16:21:20;1.90;;;0.95;;
75634;SDS011;64227;48.724;9.104;2024-02-16T16:23:48;2.25;;;0.70;;
75634;SDS011;64227;48.724;9.104;2024-02-16T16:26:24;1.35;;;0.75;;
75634;SDS011;64227;48.724;9.104;2024-02-16T16:28:59;1.15;;;0.55;;
75634;SDS011;64227;48.724;9.104;2024-02-16T16:31:25;1.70;;;0.70;;
75634;SDS011;64227;48.724;9.104;2024-02-16T16:33:50;0.88;;;0.40;;
75634;SDS011;64227;48.724;9.104;2024-02-16T16:36:15;1.60;;;0.52;;
75634;SDS011;64227;48.724;9.104;2024-02-16T16:38:41;1.30;;;0.40;;
75634;SDS011;64227;48.724;9.104;2024-02-16T16:41:07;2.67;;;0.73;;
75634;SDS011;64227;48.724;9.104;2024-02-16T16:43:33;0.82;;;0.50;;
75634;SDS011;64227;48.724;9.104;2024-02-16T16:45:58;2.38;;;0.40;;
75634;SDS011;64227;48.724;9.104;2024-02-16T16:48:24;1.25;;;0.60;;
75634;SDS011;64227;48.724;9.104;2024-02-16T16:50:49;1.83;;;0.70;;
75634;SDS011;64227;48.724;9.104;2024-02-16T16:53:15;2.83;;;0.93;;
75634;SDS011;64227;48.724;9.104;2024-02-16T16:55:40;3.08;;;0.98;;
75634;SDS011;64227;48.724;9.104;2024-02-16T16:58:05;1.27;;;0.82;;
75634;SDS011;64227;48.724;9.104;2024-02-16T17:00:31;2.33;;;0.93;;
75634;SDS011;64227;48.724;9.104;2024-02-16T17:02:56;2.50;;;0.90;;
75634;SDS011;64227;48.724;9.104;2024-02-16T17:08:55;2.60;;;0.90;;
75634;SDS011;64227;48.724;9.104;2024-02-16T17:11:22;2.22;;;0.70;;
75634;SDS011;64227;48.724;9.104;2024-02-16T17:13:58;2.10;;;0.90;;
75634;SDS011;64227;48.724;9.104;2024-02-16T17:16:43;1.23;;;0.70;;
75634;SDS011;64227;48.724;9.104;2024-02-16T17:19:11;2.33;;;0.80;;
75634;SDS011;64227;48.724;9.104;2024-02-16T17:21:37;1.98;;;0.80;;
75634;SDS011;64227;48.724;9.104;2024-02-16T17:24:02;1.65;;;1.08;;
75634;SDS011;64227;48.724;9.104;2024-02-16T17:26:27;0.85;;;0.60;;
75634;SDS011;64227;48.724;9.104;2024-02-16T17:28:52;1.02;;;0.70;;
75634;SDS011;64227;48.724;9.104;2024-02-16T17:31:18;3.60;;;0.80;;
75634;SDS011;64227;48.724;9.104;2024-02-16T17:33:43;2.58;;;0.90;;
75634;SDS011;64227;48.724;9.104;2024-02-16T17:36:09;0.85;;;0.63;;
75634;SDS011;64227;48.724;9.104;2024-02-16T17:38:34;1.38;;;0.70;;
75634;SDS011;64227;48.724;9.104;2024-02-16T17:40:59;1.65;;;0.93;;
75634;SDS011;64227;48.724;9.104;2024-02-16T17:43:26;3.92;;;1.70;;
75634;SDS011;64227;48.724;9.104;2024-02-16T17:45:52;2.25;;;1.33;;
75634;SDS011;64227;48.724;9.104;2024-02-16T17:48:17;2.97;;;1.08;;
75634;SDS011;64227;48.724;9.104;2024-02-16T17:50:43;1.08;;;0.77;;
75634;SDS011;64227;48.724;9.104;2024-02-16T17:53:08;2.07;;;0.97;;
75634;SDS011;64227;48.724;9.104;2024-02-16T17:55:33;1.05;;;0.70;;
75634;SDS011;64227;48.724;9.104;2024-02-16T17:57:59;1.27;;;0.80;;
75634;SDS011;64227;48.724;9.104;2024-02-16T18:00:24;1.35;;;0.82;;
75634;SDS011;64227;48.724;9.104;2024-02-16T18:02:49;0.90;;;0.80;;
75634;SDS011;64227;48.724;9.104;2024-02-16T18:05:17;1.48;;;0.90;;
75634;SDS011;64227;48.724;9.104;2024-02-16T18:07:42;1.50;;;0.93;;
75634;SDS011;64227;48.724;9.104;2024-02-16T18:10:07;1.05;;;0.73;;
75634;SDS011;64227;48.724;9.104;2024-02-16T18:12:34;0.90;;;0.80;;
75634;SDS011;64227;48.724;9.104;2024-02-16T18:14:59;1.23;;;0.70;;
75634;SDS011;64227;48.724;9.104;2024-02-16T18:17:25;1.00;;;0.70;;
75634;SDS011;64227;48.724;9.104;2024-02-16T18:19:50;2.80;;;0.80;;
75634;SDS011;64227;48.724;9.104;2024-02-16T18:22:17;1.85;;;0.88;;
75634;SDS011;64227;48.724;9.104;2024-02-16T18:24:42;0.98;;;0.88;;
75634;SDS011;64227;48.724;9.104;2024-02-16T18:27:07;1.15;;;0.95;;
75634;SDS011;64227;48.724;9.104;2024-02-16T18:29:33;1.40;;;0.85;;
75634;SDS011;64227;48.724;9.104;2024-02-16T18:31:58;2.38;;;0.80;;
75634;SDS011;64227;48.724;9.104;2024-02-16T18:34:25;2.83;;;1.50;;
75634;SDS011;64227;48.724;9.104;2024-02-16T18:36:51;1.70;;;1.13;;
75634;SDS011;64227;48.724;9.104;2024-02-16T18:39:17;2.90;;;0.93;;
75634;SDS011;64227;48.724;9.104;2024-02-16T18:41:46;1.02;;;0.93;;
75634;SDS011;64227;48.724;9.104;2024-02-16T18:44:12;1.00;;;0.90;;
75634;SDS011;64227;48.724;9.104;2024-02-16T18:46:38;1.90;;;1.20;;
75634;SDS011;64227;48.724;9.104;2024-02-16T18:49:03;1.13;;;0.80;;
75634;SDS011;64227;48.724;9.104;2024-02-16T18:51:28;2.42;;;1.13;;
75634;SDS011;64227;48.724;9.104;2024-02-16T18:53:54;1.27;;;0.93;;
75634;SDS011;64227;48.724;9.104;2024-02-16T18:56:19;3.22;;;1.23;;
75634;SDS011;64227;48.724;9.104;2024-02-16T18:58:45;1.27;;;0.82;;
75634;SDS011;64227;48.724;9.104;2024-02-16T19:01:10;1.55;;;0.82;;
75634;SDS011;64227;48.724;9.104;2024-02-16T19:03:35;1.50;;;0.80;;
75634;SDS011;64227;48.724;9.104;2024-02-16T19:06:01;1.88;;;0.93;;
75634;SDS011;64227;48.724;9.104;2024-02-16T19:08:26;2.88;;;0.88;;
75634;SDS011;64227;48.724;9.104;2024-02-16T19:10:52;1.90;;;1.00;;
75634;SDS011;64227;48.724;9.104;2024-02-16T19:13:19;1.90;;;0.82;;
75634;SDS011;64227;48.724;9.104;2024-02-16T19:15:45;3.03;;;0.93;;
75634;SDS011;64227;48.724;9.104;2024-02-16T19:18:10;3.00;;;1.03;;
75634;SDS011;64227;48.724;9.104;2024-02-16T19:20:35;1.63;;;0.80;;
75634;SDS011;64227;48.724;9.104;2024-02-16T19:23:00;1.33;;;0.88;;
75634;SDS011;64227;48.724;9.104;2024-02-16T19:25:26;0.90;;;0.70;;
75634;SDS011;64227;48.724;9.104;2024-02-16T19:27:51;1.50;;;1.10;;
75634;SDS011;64227;48.724;9.104;2024-02-16T19:30:17;3.85;;;1.42;;
75634;SDS011;64227;48.724;9.104;2024-02-16T19:32:43;1.67;;;0.80;;
75634;SDS011;64227;48.724;9.104;2024-02-16T19:35:08;1.33;;;1.00;;
75634;SDS011;64227;48.724;9.104;2024-02-16T19:37:37;0.93;;;0.80;;
75634;SDS011;64227;48.724;9.104;2024-02-16T19:40:02;2.05;;;1.25;;
75634;SDS011;64227;48.724;9.104;2024-02-16T19:42:28;1.10;;;0.90;;
75634;SDS011;64227;48.724;9.104;2024-02-16T19:44:54;1.45;;;0.90;;
75634;SDS011;64227;48.724;9.104;2024-02-16T19:47:19;1.13;;;0.90;;
75634;SDS011;64227;48.724;9.104;2024-02-16T19:49:45;1.73;;;1.20;;
75634;SDS011;64227;48.724;9.104;2024-02-16T19:52:10;1.30;;;0.80;;
75634;SDS011;64227;48.724;9.104;2024-02-16T19:54:35;2.33;;;1.00;;
75634;SDS011;64227;48.724;9.104;2024-02-16T19:57:01;1.27;;;0.90;;
75634;SDS011;64227;48.724;9.104;2024-02-16T19:59:26;0.70;;;0.70;;
75634;SDS011;64227;48.724;9.104;2024-02-16T20:01:51;1.80;;;1.13;;
75634;SDS011;64227;48.724;9.104;2024-02-16T20:04:17;2.45;;;1.00;;
75634;SDS011;64227;48.724;9.104;2024-02-16T20:06:43;1.17;;;0.98;;
75634;SDS011;64227;48.724;9.104;2024-02-16T20:09:08;2.13;;;0.70;;
75634;SDS011;64227;48.724;9.104;2024-02-16T20:11:46;1.23;;;1.00;;
75634;SDS011;64227;48.724;9.104;2024-02-16T20:14:15;1.38;;;0.73;;
75634;SDS011;64227;48.724;9.104;2024-02-16T20:16:51;2.85;;;1.08;;
75634;SDS011;64227;48.724;9.104;2024-02-16T20:19:23;1.90;;;1.13;;
75634;SDS011;64227;48.724;9.104;2024-02-16T20:21:52;2.55;;;0.88;;
75634;SDS011;64227;48.724;9.104;2024-02-16T20:24:18;1.30;;;1.10;;
75634;SDS011;64227;48.724;9.104;2024-02-16T20:26:48;5.45;;;3.10;;
75634;SDS011;64227;48.724;9.104;2024-02-16T20:29:20;9.07;;;4.90;;
75634;SDS011;64227;48.724;9.104;2024-02-16T20:32:06;7.05;;;3.92;;
75634;SDS011;64227;48.724;9.104;2024-02-16T20:34:33;6.30;;;2.88;;
75634;SDS011;64227;48.724;9.104;2024-02-16T20:37:00;5.60;;;2.38;;
75634;SDS011;64227;48.724;9.104;2024-02-16T20:39:26;2.78;;;1.90;;
75634;SDS011;64227;48.724;9.104;2024-02-16T20:41:51;4.35;;;2.50;;
75634;SDS011;64227;48.724;9.104;2024-02-16T20:44:17;6.30;;;3.33;;
75634;SDS011;64227;48.724;9.104;2024-02-16T20:46:42;4.25;;;2.75;;
75634;SDS011;64227;48.724;9.104;2024-02-16T20:49:07;8.82;;;5.93;;
75634;SDS011;64227;48.724;9.104;2024-02-16T20:51:32;16.63;;;9.98;;
75634;SDS011;64227;48.724;9.104;2024-02-16T20:53:59;19.17;;;13.00;;
75634;SDS011;64227;48.724;9.104;2024-02-16T20:56:26;19.05;;;12.10;;
75634;SDS011;64227;48.724;9.104;2024-02-16T20:58:51;17.20;;;8.27;;
75634;SDS011;64227;48.724;9.104;2024-02-16T21:01:17;4.22;;;3.03;;
75634;SDS011;64227;48.724;9.104;2024-02-16T21:03:42;5.60;;;3.88;;
75634;SDS011;64227;48.724;9.104;2024-02-16T21:06:07;4.13;;;3.35;;
75634;SDS011;64227;48.724;9.104;2024-02-16T21:08:33;4.82;;;3.60;;
75634;SDS011;64227;48.724;9.104;2024-02-16T21:10:58;5.57;;;2.40;;
75634;SDS011;64227;48.724;9.104;2024-02-16T21:13:23;3.25;;;2.05;;
75634;SDS011;64227;48.724;9.104;2024-02-16T21:15:48;2.38;;;1.90;;
75634;SDS011;64227;48.724;9.104;2024-02-16T21:18:14;1.67;;;1.50;;
75634;SDS011;64227;48.724;9.104;2024-02-16T21:20:39;2.80;;;1.23;;
75634;SDS011;64227;48.724;9.104;2024-02-16T21:23:06;1.58;;;1.02;;
75634;SDS011;64227;48.724;9.104;2024-02-16T21:25:31;2.22;;;1.27;;
75634;SDS011;64227;48.724;9.104;2024-02-16T21:27:56;1.50;;;1.17;;
75634;SDS011;64227;48.724;9.104;2024-02-16T21:30:22;2.67;;;2.05;;
75634;SDS011;64227;48.724;9.104;2024-02-16T21:32:49;2.67;;;1.40;;
75634;SDS011;64227;48.724;9.104;2024-02-16T21:35:16;2.85;;;1.77;;
75634;SDS011;64227;48.724;9.104;2024-02-16T21:37:45;3.78;;;1.73;;
75634;SDS011;64227;48.724;9.104;2024-02-16T21:40:11;2.30;;;1.80;;
75634;SDS011;64227;48.724;9.104;2024-02-16T21:42:36;2.33;;;1.80;;
75634;SDS011;64227;48.724;9.104;2024-02-16T21:45:02;4.45;;;1.77;;
75634;SDS011;64227;48.724;9.104;2024-02-16T21:47:27;1.55;;;1.33;;
75634;SDS011;64227;48.724;9.104;2024-02-16T21:49:53;1.83;;;1.50;;
75634;SDS011;64227;48.724;9.104;2024-02-16T21:52:19;4.18;;;1.55;;
75634;SDS011;64227;48.724;9.104;2024-02-16T21:54:44;1.88;;;1.30;;
75634;SDS011;64227;48.724;9.104;2024-02-16T21:57:09;1.67;;;1.40;;
75634;SDS011;64227;48.724;9.104;2024-02-16T21:59:35;1.80;;;1.30;;
75634;SDS011;64227;48.724;9.104;2024-02-16T22:02:00;2.88;;;1.90;;
75634;SDS011;64227;48.724;9.104;2024-02-16T22:04:25;2.13;;;1.40;;
75634;SDS011;64227;48.724;9.104;2024-02-16T22:06:51;2.20;;;1.40;;
75634;SDS011;64227;48.724;9.104;2024-02-16T22:09:18;1.38;;;1.20;;
75634;SDS011;64227;48.724;9.104;2024-02-16T22:11:44;2.40;;;1.60;;
75634;SDS011;64227;48.724;9.104;2024-02-16T22:14:09;4.07;;;2.28;;
75634;SDS011;64227;48.724;9.104;2024-02-16T22:16:35;1.67;;;1.48;;
75634;SDS011;64227;48.724;9.104;2024-02-16T22:19:01;2.65;;;1.45;;
75634;SDS011;64227;48.724;9.104;2024-02-16T22:21:27;2.40;;;1.20;;
75634;SDS011;64227;48.724;9.104;2024-02-16T22:23:52;1.88;;;1.30;;
75634;SDS011;64227;48.724;9.104;2024-02-16T22:26:23;3.28;;;1.60;;
75634;SDS011;64227;48.724;9.104;2024-02-16T22:28:48;2.35;;;1.60;;
75634;SDS011;64227;48.724;9.104;2024-02-16T22:31:14;2.53;;;1.52;;
75634;SDS011;64227;48.724;9.104;2024-02-16T22:33:39;2.10;;;1.60;;
75634;SDS011;64227;48.724;9.104;2024-02-16T22:36:05;3.33;;;1.98;;
75634;SDS011;64227;48.724;9.104;2024-02-16T22:38:40;2.88;;;1.75;;
75634;SDS011;64227;48.724;9.104;2024-02-16T22:41:10;3.08;;;1.65;;
75634;SDS011;64227;48.724;9.104;2024-02-16T22:43:37;2.05;;;1.60;;
75634;SDS011;64227;48.724;9.104;2024-02-16T22:46:05;3.65;;;1.85;;
75634;SDS011;64227;48.724;9.104;2024-02-16T22:48:31;2.30;;;1.80;;
75634;SDS011;64227;48.724;9.104;2024-02-16T22:50:56;4.32;;;1.52;;
75634;SDS011;64227;48.724;9.104;2024-02-16T22:53:22;2.50;;;1.80;;
75634;SDS011;64227;48.724;9.104;2024-02-16T22:55:47;2.30;;;2.10;;
75634;SDS011;64227;48.724;9.104;2024-02-16T22:58:13;2.65;;;1.73;;
75634;SDS011;64227;48.724;9.104;2024-02-16T23:00:39;2.78;;;1.77;;
75634;SDS011;64227;48.724;9.104;2024-02-16T23:03:07;2.53;;;1.40;;
75634;SDS011;64227;48.724;9.104;2024-02-16T23:05:34;1.85;;;1.40;;
75634;SDS011;64227;48.724;9.104;2024-02-16T23:08:00;1.77;;;1.67;;
75634;SDS011;64227;48.724;9.104;2024-02-16T23:10:26;2.47;;;2.10;;
75634;SDS011;64227;48.724;9.104;2024-02-16T23:12:51;2.35;;;1.52;;
75634;SDS011;64227;48.724;9.104;2024-02-16T23:15:18;2.35;;;1.60;;
75634;SDS011;64227;48.724;9.104;2024-02-16T23:17:44;2.00;;;1.40;;
75634;SDS011;64227;48.724;9.104;2024-02-16T23:20:14;3.20;;;2.13;;
75634;SDS011;64227;48.724;9.104;2024-02-16T23:22:56;2.40;;;1.92;;
75634;SDS011;64227;48.724;9.104;2024-02-16T23:25:27;3.35;;;2.03;;
75634;SDS011;64227;48.724;9.104;2024-02-16T23:27:53;2.33;;;1.90;;
75634;SDS011;64227;48.724;9.104;2024-02-16T23:30:18;2.03;;;1.50;;
75634;SDS011;64227;48.724;9.104;2024-02-16T23:32:44;2.58;;;2.00;;
75634;SDS011;64227;48.724;9.104;2024-02-16T23:35:09;3.60;;;2.20;;
75634;SDS011;64227;48.724;9.104;2024-02-16T23:37:34;2.70;;;2.20;;
75634;SDS011;64227;48.724;9.104;2024-02-16T23:40:00;2.95;;;2.28;;
75634;SDS011;64227;48.724;9.104;2024-02-16T23:44:54;2.47;;;1.90;;
75634;SDS011;64227;48.724;9.104;2024-02-16T23:47:19;3.37;;;2.07;;
75634;SDS011;64227;48.724;9.104;2024-02-16T23:49:44;3.47;;;2.17;;
75634;SDS011;64227;48.724;9.104;2024-02-16T23:52:10;3.30;;;2.40;;
75634;SDS011;64227;48.724;9.104;2024-02-16T23:54:35;2.25;;;2.05;;
75634;SDS011;64227;48.724;9.104;2024-02-16T23:57:00;3.88;;;2.15;;
75634;SDS011;64227;48.724;9.104;2024-02-16T23:59:26;4.32;;;2.15;;
